Archival Weather

Chicago O'Hare International

Chicago, Illinois (KORD)

Report from: Monday, January 2, 2023 11:51 PM CST
Current time: Monday, June 17, 2024 2:49 AM CDT

Current weather – Weather history – Daily summaries
Weather forecast

Present weatherFog
Temperature3.9°C (39.0°F)
Wind chill0.4°C (32.8°F)
Dew point2.8°C (37.0°F)
Winds 8 kts (4.1 m/s, 9.2 mph) East-Northeast (60°)
Visibility2640 ft. (804.7 m)
Clouds Ceiling: Vertical visibility 200 ft. (61 m)
Altimeter29.84 in.Hg (1010 mB)
Relative humidity93 %
Density altitude-1,154 ft. (-352 m)
Sea-level pressure101.1 kPa (1011 mB, 29.85 in.Hg)
Max temp last 6 hours4.4°C (39.9°F)
Min temp last 6 hours3.3°C (37.9°F)
Max temp last 24 hours6.1°C (43.0°F)
Min temp last 24 hours0.0°C (32.0°F)
Remarks Automated weather observing station with precipitation discriminator
Pressure falling more slowly
Flight conditions Low Instrument Meteorological Conditions
Raw dataKORD 030551Z 06008KT 1/2SM R10L/4000FT FG VV002 04/03 A2984 RMK AO2 SLP109 T00390028 10044 20033 400610000 56039
An error has occurred. This application may no longer respond until reloaded. Reload 🗙